Insider trading report: insider purchases reported on April 8, 2019

This page lists insider stock purchases reported on April 8, 2019. To query the history of insider trading activities (stock purchases, sales, and option exercises) for a particular company, click on the Issuer column. For the most current insider trading transactions see Realtime Insider Trading Report. For insider stock sales reported on this day see insider trading report: insider sales reported on April 8, 2019.

Insider stock purchases reported on April 8, 2019 (This report is sorted by stock symbol).
Sort by
Symbol
Company Insider Name   Shares     Price   Sort by
Value($)
Trade
Date
AUBN Auburn National Bancorporation, Inc 1st time Smith Charles Edward Jr (Senior Vice President) 15 38.09 571 2019-04-08
   O'donnell Shannon (Senior Vice President) 14 38.09 533 2019-04-08
AVEO Aveo Pharmaceuticals Inc 1st time Barris Peter J (10% Owner) 4,347,827 1.14 4,956,522 2019-04-08
   Mott David M (10% Owner) 4,347,827 1.14 4,956,522 2019-04-08
   Makower Joshua (10% Owner) 4,347,827 1.14 4,956,522 2019-04-08
   Sandell Scott D (10% Owner) 4,347,827 1.14 4,956,522 2019-04-08
   Baskett Forest (10% Owner) 4,347,827 1.14 4,956,522 2019-04-08
   Sonsini Peter W. (10% Owner) 4,347,827 1.14 4,956,522 2019-04-08
   Florence Anthony A. Jr. (10% Owner) 4,347,827 1.14 4,956,522 2019-04-08
   New Enterprise Associates 15, L.p. (10% Owner) 4,347,827 1.14 4,956,522 2019-04-08
   Makhzoumi Mohamad (10% Owner) 4,347,827 1.14 4,956,522 2019-04-08
AWF Alliancebernstein Global High Income Fund Inc 1st time Distenfeld Gershon M (Vice President) 985 11.67 11,493 2019-04-08
BSET Bassett Furniture Industries Inc 1st time Warden William C Jr (Director) 5,000 17.10 85,500 2019-04-05
BTN Ballantyne Strong, Inc. 1st time Moglia Joseph H 7,713 1.95 15,009 2019-04-04
   Moglia Joseph H 7,712 1.95 14,999 2019-04-05
CPKA Chase Packaging Corp 1st time Forbes John A 90,500 .07 5,882 2019-04-01
EHI Western Asset Global High Income Fund Inc. 1st time Weinstein Boaz (10% Owner) 12,070 9.64 116,354 2019-04-04
   Weinstein Boaz (10% Owner) 100 9.56 956 2019-04-03
GALT Galectin Therapeutics Inc 1st time Freeman Kevin D (Director) 500 4.73 2,365 2019-04-05
   Uihlein Richard E (Director) 21,000 4.81 100,968 2019-04-05
   Lewis Joel (Director) 667 4.82 3,214 2019-04-05
HIO Western Asset High Income Opportunity Fund Inc. 1st time Weinstein Boaz (10% Owner) 48,940 4.91 240,295 2019-04-04
   Weinstein Boaz (10% Owner) 26,011 4.87 126,673 2019-04-03
HIX Western Asset High Income Fund Ii Inc. 1st time Weinstein Boaz (10% Owner) 20,000 6.56 131,200 2019-04-04
LTS Ladenburg Thalmann Financial Services Inc. 1st time Malamed Adam Scott (Executive VP and COO) 15,000 2.93 43,995 2019-04-05
   Davis Glenn C (Director) 5,000 2.93 14,640 2019-04-05
   Liebowitz Michael (Director) 10,000 2.92 29,200 2019-04-05
MNI Mcclatchy Co 1st time Chatham Asset Management, Llc 300 4.45 1,335 2019-04-04
NDP Tortoise Energy Independence Fund, Inc. 1st time Birzer H Kevin 100 8.50 850 2019-04-05
NHS Neuberger Berman High Yield Strategies Fund Inc. 1st time Weinstein Boaz (10% Owner) 2,152 11.42 24,575 2019-04-03
   Weinstein Boaz (10% Owner) 40,534 11.49 465,735 2019-04-04
   Weinstein Boaz (10% Owner) 51,959 11.55 600,126 2019-04-05
NTG Tortoise Midstream Energy Fund, Inc. 1st time Birzer H Kevin 100 14.26 1,426 2019-04-05
PKTX Protokinetix, Inc. 1st time Guzzetta Michael Richard (CFO) 6,000 .69 4,110 2019-04-05
PRSP Perspecta Inc. 1st time Nolan Philip O 4,595 21.83 100,308 2019-04-04
PSTI Pluristem Therapeutics Inc 1st time Shorrer Doron 14,286 .70 10,000 2019-04-08
   Ben-yoram Israel 71,429 .70 50,000 2019-04-08
   Braun Isaac 50,000 .70 35,000 2019-04-08
   Aberman Zami (Co-CEO & Chairman) 71,429 .70 50,000 2019-04-08
   Yanay Yaky (Co-CEO & President) 71,429 .70 50,000 2019-04-08
   Kwiat Moria 28,571 .70 19,999 2019-04-08
RVP Retractable Technologies Inc 1st time Shaw Thomas J (President and CEO) 12,000 .68 8,112 2019-04-05
TEAF Tortoise Essential Assets Income Term Fund 1st time Birzer H Kevin 100 20.12 2,012 2019-04-05
TEX Terex Corp 1st time Henry Brian J (SVP Finance, Bus Development) 103 33.43 3,443 2019-04-05
   Barr Kevin A (Senior V. P. Human Resources) 10 33.43 334 2019-04-05
   Sheehan John D (Senior Vice President, CFO) 572 33.44 19,127 2019-04-05
TIPT Tiptree Inc. 1st time Barnes Michael Gene (Executive Chairman) 8,687 6.36 55,249 2019-04-04
   Barnes Michael Gene (Executive Chairman) 1,510 6.34 9,580 2019-04-05
TPL Texas Pacific Land Trust 1st time Kinetics Asset Management Llc (10% Owner) 42 792.27 33,275 2019-04-05
TPZ Tortoise Power & Energy Infrastructure Fund Inc 1st time Birzer H Kevin 100 18.89 1,889 2019-04-05
TRWH Twin River Worldwide Holdings, Inc. 1st time Chatham Asset Management, Llc 40,000 31.02 1,240,800 2019-04-04
   Chatham Asset Management, Llc 40,100 31.25 1,253,125 2019-04-05
TTP Tortoise Pipeline & Energy Fund, Inc. 1st time Birzer H Kevin 100 15.36 1,536 2019-04-05
TW Tradeweb Markets Inc. 1st time Warshaw Robert J (Chief Financial Officer) 8,000 27.00 216,000 2019-04-08
   Bruni Enrico (Managing Director, Europe/Asia) 30,000 27.00 810,000 2019-04-08
   Friedman Douglas (General Counsel and Secretary) 3,000 27.00 81,000 2019-04-08
   Hult William (President) 12,000 27.00 324,000 2019-04-08
   Olesky Lee (Chief Executive Officer) 20,000 27.00 540,000 2019-04-08
   Zucker Scott (Chief Administrative Officer) 4,000 27.00 108,000 2019-04-08
   Spencer James (Chief Technology Officer) 6,000 27.00 162,000 2019-04-08
   Maisey Simon (Managing Director, Corp. Dev.) 5,500 27.00 148,500 2019-04-08
TYG Tortoise Energy Infrastructure Corp 1st time Birzer H Kevin 100 23.79 2,379 2019-04-05
VVR Invesco Senior Income Trust 1st time Weinstein Boaz (10% Owner) 497,604 4.29 2,134,721 2019-04-05
   Weinstein Boaz (10% Owner) 384,179 4.28 1,644,286 2019-04-04
   Weinstein Boaz (10% Owner) 168,666 4.27 720,203 2019-04-03